Date,TemperatureHighF,TemperatureAvgF,TemperatureLowF,DewpointHighF,DewpointAvgF,DewpointLowF,HumidityHigh,HumidityAvg,HumidityLow,PressureMaxIn,PressureMinIn,WindSpeedMaxMPH,WindSpeedAvgMPH,GustSpeedMaxMPH,PrecipitationSumIn
2013-1-1,32.0,14.7,9.5,12.2,7.8,3.0,86,74,61,30.66,30.27,2,0,2,0.00
2013-1-2,23.0,13.8,7.6,10.7,5.3,-0.0,79,68,56,30.71,30.40,3,0,3,0.00
2013-1-3,22.2,12.3,5.0,9.7,4.2,-1.1,80,70,57,30.54,30.40,2,0,2,0.00
2013-1-4,32.0,20.1,6.7,14.6,10.5,1.2,78,66,53,30.40,30.21,2,0,4,0.00
2013-1-5,17.5,17.5,17.5,9.7,9.7,9.7,71,71,71,30.41,29.67,0,0,0,0.00
2013-1-6,29.3,21.0,17.5,16.8,11.8,9.7,81,67,52,30.00,29.53,2,0,2,0.00
2013-1-7,32.8,25.7,18.0,19.2,14.4,9.2,77,62,46,29.99,29.56,14,0,14,0.00
2013-1-8,31.6,27.1,21.4,20.7,7.6,-1.7,84,45,27,29.97,29.64,22,0,22,0.00
2013-1-9,29.4,26.3,21.8,27.2,23.4,17.4,93,89,83,29.79,29.55,2,0,2,0.00
2013-1-10,25.1,17.1,9.2,22.0,12.4,3.5,88,81,77,30.29,29.79,4,0,4,0.00
2013-1-11,9.2,0.8,-6.8,3.5,-5.1,-13.2,81,76,68,30.50,30.29,1,0,1,0.00
2013-1-12,10.9,4.1,-3.1,4.0,-1.7,-9.3,81,76,64,30.56,30.38,1,0,1,0.00
2013-1-13,12.8,7.0,0.3,4.3,0.5,-5.7,81,74,63,30.54,30.37,1,0,1,0.00
2013-1-14,22.7,14.4,3.4,12.9,7.3,-2.5,82,73,60,30.41,30.23,2,0,2,0.00
2013-1-15,43.2,27.7,12.9,21.8,14.3,7.6,85,59,27,30.34,30.06,13,0,13,0.00
2013-1-16,43.3,40.1,36.9,21.8,17.8,10.7,53,41,27,30.24,30.01,20,0,20,0.03
2013-1-17,45.7,41.9,35.8,26.5,20.2,11.2,61,43,28,30.20,29.88,23,0,23,0.08
2013-1-18,41.9,40.0,34.4,21.3,17.6,12.4,47,40,31,30.04,29.79,21,0,22,0.00
2013-1-19,41.8,28.3,20.3,22.0,17.5,12.2,86,66,33,30.51,30.04,13,0,18,0.00
2013-1-20,20.5,13.0,5.8,13.3,5.1,-0.4,78,70,56,30.67,30.45,3,0,10,0.00
2013-1-21,41.6,27.9,10.5,16.1,12.2,4.7,88,55,26,30.45,30.05,3,0,3,0.00
2013-1-22,35.6,24.9,17.8,16.3,13.6,10.9,81,63,39,30.25,30.06,2,0,2,0.00
2013-1-23,37.9,21.7,14.3,25.1,14.2,9.5,85,73,51,30.23,29.72,9,0,9,0.00
2013-1-24,36.8,33.1,28.8,25.1,17.3,12.1,78,52,40,30.05,29.74,3,0,7,0.00
2013-1-25,35.9,31.8,26.3,32.0,18.2,12.7,73,57,45,29.98,29.84,11,0,11,0.00
2013-1-26,29.7,20.1,10.7,13.9,10.6,5.2,83,67,49,30.01,29.87,1,0,1,0.00
2013-1-27,32.4,23.1,16.4,15.6,11.1,5.8,77,61,36,29.96,29.83,5,0,5,0.00
2013-1-28,28.5,20.3,11.6,14.3,9.6,2.5,81,64,35,29.95,29.78,9,0,9,0.00
2013-1-29,23.5,7.3,-3.1,12.8,-0.3,-10.4,80,71,60,30.44,29.91,12,0,12,0.00
2013-1-30,28.7,21.3,10.9,17.5,12.3,5.1,78,68,57,30.26,29.99,8,0,8,0.00
2013-1-31,42.1,29.2,8.1,23.8,17.1,3.5,91,62,44,30.28,29.96,0,0,5,0.01
2013-2-1,40.8,35.4,27.8,23.9,18.6,14.0,69,51,34,30.19,29.97,12,0,12,0.00
2013-2-2,46.5,39.5,34.6,22.4,18.7,14.2,58,43,28,30.27,29.95,10,0,10,0.00
2013-2-3,42.1,39.2,35.5,20.4,17.2,14.2,50,41,34,29.96,29.80,13,0,13,0.00
2013-2-4,38.9,35.7,27.9,20.4,17.7,14.1,68,48,36,29.89,29.69,18,0,18,0.00
2013-2-5,42.2,33.5,26.6,22.6,19.5,15.2,76,58,38,29.89,29.60,5,0,5,0.00
2013-2-6,39.3,32.2,26.0,21.5,16.3,9.9,74,53,31,29.99,29.65,4,0,4,0.00
2013-2-7,39.6,29.6,20.3,18.5,15.1,11.2,72,55,39,30.02,29.87,2,0,2,0.00
2013-2-8,36.9,28.6,21.6,16.5,12.9,8.5,72,53,31,30.09,29.96,9,0,9,0.00
2013-2-9,31.2,22.4,18.0,23.7,15.0,9.3,85,73,58,30.30,30.03,0,0,0,0.00
2013-2-10,35.2,19.6,10.2,16.1,11.7,5.5,86,73,34,30.43,30.19,0,0,0,0.00
2013-2-11,41.8,28.5,16.2,17.8,11.9,8.3,73,52,29,30.20,29.94,0,0,3,0.00
2013-2-12,41.3,34.3,26.1,22.9,18.1,13.4,65,51,38,30.03,29.73,0,0,12,0.00
2013-2-13,38.6,29.7,22.7,22.7,10.8,1.6,73,47,24,30.28,29.75,2,0,17,0.00
2013-2-14,35.3,28.0,15.1,12.4,9.5,3.8,68,47,28,30.48,30.28,5,0,5,0.00
2013-2-15,42.8,33.4,20.0,25.3,19.0,10.1,69,55,46,30.44,30.12,11,0,11,0.00
2013-2-16,44.9,36.2,27.0,27.1,21.4,14.5,73,55,38,30.12,29.70,9,0,9,0.00
2013-2-17,33.4,27.5,21.4,27.4,24.2,18.4,92,87,61,30.14,29.71,1,0,1,0.00
2013-2-18,32.7,20.0,10.5,19.5,14.4,5.5,90,79,56,30.20,29.97,2,0,2,0.01
2013-2-19,29.7,23.2,12.6,23.0,17.8,7.8,86,80,59,29.98,29.86,4,0,4,0.04
2013-2-20,32.2,22.2,11.9,17.4,12.2,3.5,87,68,32,30.01,29.87,6,0,6,0.03
2013-2-21,33.4,21.6,9.9,11.1,6.3,1.2,69,53,33,30.03,29.85,5,0,5,0.00
2013-2-22,37.8,29.3,20.6,20.9,13.8,9.9,71,53,36,29.85,29.45,16,0,16,0.01
2013-2-23,37.8,29.2,21.3,19.7,12.3,4.5,78,52,28,30.07,29.44,6,0,6,0.00
2013-2-24,39.1,31.2,23.0,18.2,11.0,4.5,59,43,32,30.07,29.89,12,0,12,0.00
2013-2-25,36.8,31.2,25.0,21.4,15.1,8.4,80,52,34,29.98,29.69,10,0,10,0.00
2013-2-26,38.5,26.6,16.9,19.5,14.0,7.4,85,62,30,30.23,29.97,5,0,5,0.00
2013-2-27,28.8,25.7,23.2,14.6,12.9,9.8,65,58,46,30.14,30.10,0,0,0,0.00
2013-2-28,39.5,33.8,26.3,20.3,14.0,8.8,56,44,29,30.26,30.09,1,0,7,0.00
2013-3-1,47.3,38.5,32.9,34.4,28.3,20.1,93,68,44,30.08,29.99,9,0,9,0.03
2013-3-2,46.5,39.6,33.8,35.1,30.4,20.9,93,72,42,30.07,29.67,5,0,5,0.01
2013-3-3,34.3,24.8,20.8,25.0,20.2,15.7,89,82,67,30.39,29.57,9,0,9,0.00
2013-3-4,29.5,20.5,15.2,18.1,14.1,10.7,86,76,59,30.46,30.32,5,0,5,0.10
2013-3-5,32.0,20.3,13.6,32.0,13.1,9.1,85,74,45,30.34,30.12,1,0,1,0.01
2013-3-6,33.1,20.3,11.7,32.0,13.7,7.0,85,76,53,30.12,29.88,7,0,7,0.01
2013-3-7,32.0,21.0,15.1,32.0,14.6,10.1,83,76,61,30.20,29.94,5,0,5,0.01
2013-3-8,39.8,29.5,15.1,20.5,15.6,10.4,88,59,32,30.16,29.96,6,0,6,0.01
2013-3-9,43.9,30.5,16.2,22.7,15.0,9.7,79,54,32,30.32,30.06,3,0,3,0.00
2013-3-10,43.5,35.8,30.6,23.6,16.1,10.1,75,45,30,30.23,29.99,14,0,14,0.00
2013-3-11,35.5,29.7,23.5,23.1,4.8,-2.8,75,36,21,30.30,30.03,4,0,4,0.00
2013-3-12,39.8,30.6,22.2,24.9,13.8,1.1,59,49,37,30.27,29.87,4,0,4,0.00
2013-3-13,48.2,43.4,34.7,34.7,27.2,24.0,91,54,41,29.97,29.80,14,0,14,0.01
2013-3-14,45.8,24.1,13.5,29.8,16.1,7.1,87,72,48,30.15,29.89,11,0,11,0.00
2013-3-15,34.1,21.0,11.6,25.5,13.3,5.6,92,72,49,30.24,30.03,8,0,8,0.00
2013-3-16,43.2,24.6,15.6,25.5,16.4,10.6,86,72,45,30.21,29.68,5,0,5,0.00
2013-3-17,32.0,14.8,9.3,15.1,8.9,3.9,85,77,64,30.09,29.62,10,0,10,0.01
2013-3-18,30.3,18.7,8.4,18.6,9.6,2.4,86,70,31,30.19,29.88,5,0,5,0.00
2013-3-19,36.5,21.1,7.2,16.4,7.4,2.1,84,59,26,30.38,29.96,9,0,9,0.01
2013-3-20,49.8,36.3,20.8,31.8,21.2,10.6,89,55,35,29.96,29.31,11,0,11,0.02
2013-3-21,37.0,31.5,22.1,30.6,19.4,11.4,90,63,37,29.98,29.34,6,0,6,0.00
2013-3-22,30.6,21.8,14.0,17.8,13.4,7.9,84,70,45,30.40,29.98,4,0,4,0.02
2013-3-23,30.3,17.1,4.8,12.6,4.7,-2.8,78,60,29,30.54,30.36,7,0,7,0.00
2013-3-24,36.5,20.3,4.3,9.2,2.6,-3.1,73,50,23,30.54,30.29,5,0,5,0.00
2013-3-25,45.1,25.9,11.6,14.4,5.6,0.3,62,44,19,30.34,30.07,4,0,4,0.00
2013-3-26,47.6,34.0,17.2,20.5,13.4,7.5,66,44,23,30.17,29.95,2,0,2,0.00
2013-3-27,52.2,34.6,21.9,22.0,17.7,14.2,74,53,26,30.12,29.97,2,0,2,0.00
2013-3-28,52.5,36.8,24.7,32.0,19.0,15.1,76,52,24,30.15,30.00,3,0,3,0.00
2013-3-29,51.0,37.4,24.1,25.4,18.9,15.6,74,50,26,30.21,30.03,8,0,8,0.00
2013-3-30,53.8,42.6,29.7,25.7,21.6,16.2,77,47,24,30.24,30.03,3,0,3,0.00
2013-3-31,55.9,43.7,34.9,28.6,25.6,21.3,66,50,32,30.15,29.99,7,0,7,0.00
2013-4-1,62.6,40.2,24.8,28.8,24.6,19.5,87,59,20,30.20,29.92,3,0,3,0.00
2013-4-2,59.9,44.4,29.7,28.5,24.2,21.4,77,49,23,30.01,29.82,6,0,6,0.00
2013-4-3,45.7,34.8,30.9,31.5,28.7,25.7,91,79,46,30.19,29.82,9,0,9,0.01
2013-4-4,46.8,36.3,30.4,34.0,30.0,26.1,89,78,53,30.17,29.63,1,0,2,0.00
2013-4-5,53.8,41.1,30.1,39.4,32.7,23.9,92,75,34,29.75,29.51,7,0,7,0.00
2013-4-6,42.9,31.3,28.1,31.1,27.3,25.4,92,86,60,29.80,29.68,12,0,12,0.00
2013-4-7,29.3,26.5,20.2,27.0,22.3,15.3,92,84,74,30.15,29.74,3,0,10,0.00
2013-4-8,26.9,20.8,16.4,16.6,13.7,10.5,82,74,63,30.47,30.15,7,0,7,0.00
2013-4-9,45.7,28.9,13.1,20.6,13.6,8.2,81,57,27,30.51,30.10,4,0,4,0.00
2013-4-10,52.8,43.4,32.0,32.0,26.4,19.6,67,51,38,30.11,29.56,7,0,7,0.00
2013-4-11,38.6,33.8,31.0,33.4,27.2,20.5,91,77,62,30.00,29.77,5,0,5,0.00
2013-4-12,46.8,32.6,21.4,24.0,19.1,13.4,88,62,26,30.17,29.54,0,0,6,0.00
2013-4-13,40.2,31.3,25.0,30.5,25.2,21.1,89,78,61,29.94,29.41,10,0,10,0.00
2013-4-14,27.0,23.9,20.6,21.1,18.8,15.7,87,81,71,30.27,29.92,9,0,9,0.00
2013-4-15,28.7,22.8,17.8,18.5,15.6,13.2,85,74,55,30.47,30.23,9,0,9,0.00
2013-4-16,33.5,25.1,19.1,32.0,18.4,13.7,86,76,57,30.55,30.43,9,0,9,0.00
2013-4-17,45.2,29.4,14.3,18.0,11.4,7.3,82,52,23,30.53,30.17,2,0,4,0.00
2013-4-18,52.5,41.4,30.9,28.0,19.5,12.0,66,43,27,30.17,29.95,4,0,4,0.00
2013-4-19,52.8,43.6,34.9,28.3,25.8,20.2,72,52,29,29.95,29.68,6,0,6,0.00
2013-4-20,45.7,34.2,22.5,32.9,24.3,18.3,89,69,36,30.24,29.71,9,0,9,0.00
2013-4-21,32.7,23.8,17.0,18.9,13.8,11.4,86,67,44,30.50,30.24,11,0,11,0.00
2013-4-22,47.4,30.3,14.4,11.6,7.3,0.6,76,44,15,30.61,30.31,4,0,4,0.00
2013-4-23,48.8,36.1,26.0,25.7,14.6,5.7,59,42,26,30.32,30.17,2,0,2,0.00
2013-4-24,51.9,40.7,25.8,21.5,17.0,11.7,67,41,22,30.26,29.84,15,0,15,0.00
2013-4-25,55.7,46.9,36.8,27.9,22.8,18.0,57,40,24,29.92,29.73,14,0,14,0.00
2013-4-26,63.1,52.7,43.1,30.6,26.1,22.2,58,37,22,29.91,29.77,15,0,15,0.00
2013-4-27,52.6,47.8,42.5,37.5,28.0,21.3,81,48,31,29.77,29.65,16,0,16,0.00
2013-4-28,56.9,44.5,32.9,30.2,22.1,9.1,82,46,17,29.92,29.54,15,0,15,0.00
2013-4-29,41.9,33.9,27.2,30.1,24.4,14.5,93,71,35,29.89,29.41,3,0,3,0.00
2013-4-30,33.4,27.0,21.6,24.6,20.6,15.9,89,77,60,30.37,29.89,7,0,7,0.00
2013-5-1,26.4,22.4,19.1,22.4,18.0,14.8,86,83,80,30.54,30.34,0,0,0,0.00
2013-5-2,59.0,47.1,34.7,27.3,19.2,13.9,46,34,23,30.52,30.19,0,0,6,0.00
2013-5-3,61.8,49.0,39.5,35.5,30.6,25.1,83,53,26,30.33,30.17,0,0,3,0.00
2013-5-4,68.4,50.3,32.8,33.1,26.8,20.5,80,47,17,30.40,30.11,0,0,4,0.00
2013-5-5,79.0,54.7,32.8,35.8,28.5,23.4,72,42,16,30.16,29.86,0,0,1,0.00
2013-5-6,82.6,65.0,36.6,33.7,27.5,17.0,75,29,9,29.98,29.67,1,0,2,0.00
2013-5-7,66.3,55.1,42.5,33.7,29.8,23.4,61,39,26,30.01,29.68,11,0,11,0.00
2013-5-8,76.5,54.9,34.7,36.3,30.7,21.7,76,45,14,30.09,29.90,9,0,9,0.00
2013-5-9,76.0,57.7,38.2,34.8,26.1,18.4,66,36,13,30.15,29.93,4,0,4,0.00
2013-5-10,67.4,56.0,44.3,33.1,30.4,23.7,60,39,26,30.29,30.04,10,0,10,0.01
2013-5-11,77.7,58.2,39.8,36.2,28.2,19.5,71,38,13,30.19,29.83,6,0,6,0.00
2013-5-12,75.6,61.2,49.6,49.9,36.3,27.3,74,41,25,29.84,29.57,13,0,13,0.01
2013-5-13,60.2,51.5,44.1,45.8,37.9,30.9,89,62,33,29.77,29.62,9,0,9,0.12
2013-5-14,58.0,48.1,32.0,38.8,30.8,23.1,83,53,27,29.95,29.70,15,0,15,0.01
2013-5-15,61.0,48.6,34.0,30.2,26.9,21.2,75,45,25,30.05,29.85,1,0,9,0.00
2013-5-16,58.6,44.8,33.5,40.5,31.9,25.8,82,62,29,29.95,29.80,6,0,6,0.01
2013-5-17,62.9,46.6,30.7,35.8,32.1,26.1,91,62,27,30.02,29.84,8,0,8,0.00
2013-5-18,66.8,48.7,34.7,37.9,33.5,27.9,83,59,28,29.96,29.82,8,0,8,0.00
2013-5-19,57.2,46.2,40.2,46.2,39.9,34.0,93,79,55,30.23,29.93,1,0,1,0.12
2013-5-20,65.8,51.2,36.2,40.5,37.3,30.5,93,63,29,30.29,29.93,6,0,6,0.00
2013-5-21,64.2,53.0,36.9,43.0,33.2,20.1,90,53,21,29.94,29.73,12,0,12,0.00
2013-5-22,55.7,47.5,42.8,39.9,28.5,22.0,86,50,28,29.98,29.75,9,0,10,0.01
2013-6-29,0.0,0.0,0.0,0.0,0.0,0.0,0,0,100,30.12,29.98,5,1,7,0.11
2013-6-30,88.0,4.4,0.0,63.6,2.0,0.0,73,1,41,32.31,29.72,6,1,6,0.49
2013-7-1,88.0,48.2,0.0,64.0,55.7,32.0,0,0,100,30.01,29.64,3,0,7,0.00
2013-7-2,82.0,73.4,32.0,68.1,61.7,32.0,0,0,100,29.71,29.66,1,0,1,0.00
2013-7-3,32.0,32.0,32.0,39.6,38.4,35.7,2,0,2,29.74,29.72,3,0,3,0.00
2013-7-4,32.0,31.9,0.0,43.1,40.5,38.1,2,0,2,29.87,29.80,5,0,8,0.00
2013-7-5,32.0,32.0,32.0,44.0,42.4,41.3,0,0,100,29.84,29.82,0,0,0,0.00
2013-7-9,-74.0,-74.0,-74.0,40.8,34.2,27.9,2,0,2,29.74,29.70,1,0,4,0.00
2013-7-11,32.0,-13.2,-74.0,47.2,44.5,32.0,4,1,2,30.04,30.03,0,0,0,0.00
2013-7-13,32.0,24.0,0.0,48.5,46.7,45.5,4,1,4,30.04,30.04,0,0,0,0.00